»·PEaware :: N1248L KBLI-KBFI

N1248L :: KBLI-KBFI

FLIGHT INFORMATION

Flight Status: Arrived
Operator: Privately registered:
United States
More flights under this callsign
Pilot: Anonymous 40054 (40054)
Aircraft: CESSNA 310
(C310)
More flights by this aircraft type
Origin: KBLI Bellingham Intl
United States
Destination: KBFI Boeing Field/King Co Intl
United States
More flights between these airports :: More routes between these airports
Route: KIENO6 CVV LOFAL
File this flight plan on PilotEdge
Remarks: RANDOM SYSTEM FAILURES ENABLED
Altitude:
(Current/Filed)
7,000ft
Speed:
(Current/Filed)
180kts
Departed: 17-Jan-23 03:56 PM
Arrived: 17-Jan-23 04:31 PM
Distance/Time
Traveled:
76nm/0:35
Distance/Time
To Go:
Arrived

Flight Plot

Page will automatically refresh every two minutes.

Flight plan parsing failed; only flown route is shown


Map Options




Map Legend


Flown Route
Filed Route
Departure Airport
Arrival Airport
Navaid (VOR, NDB)
Fix

Horizontal Profiles

Position Reports

Time Latitude Longitude Heading Altitude Ground
Speed
17-Jan-23 15:39 48.793250 -122.533395 23 170ft 0kts
17-Jan-23 15:41 48.793250 -122.533395 23 170ft 0kts
17-Jan-23 15:42 48.793250 -122.533395 23 170ft 0kts
17-Jan-23 15:43 48.793250 -122.533395 23 170ft 0kts
17-Jan-23 15:44 48.793250 -122.533395 23 170ft 0kts
17-Jan-23 15:45 48.793250 -122.533395 23 170ft 0kts
17-Jan-23 15:46 48.793250 -122.533395 23 170ft 0kts
17-Jan-23 15:47 48.793250 -122.533395 23 170ft 0kts
17-Jan-23 15:48 48.793250 -122.533395 23 170ft 0kts
17-Jan-23 15:49 48.793250 -122.533395 23 170ft 0kts
17-Jan-23 15:50 48.793873 -122.534912 322 170ft 23kts
17-Jan-23 15:51 48.800850 -122.535687 7 167ft 26kts
17-Jan-23 15:52 48.801624 -122.536046 218 167ft 0kts
17-Jan-23 15:53 48.801624 -122.536046 218 167ft 0kts
17-Jan-23 15:54 48.801624 -122.536046 218 167ft 0kts
17-Jan-23 15:55 48.801624 -122.536046 218 167ft 0kts
17-Jan-23 15:56 48.791883 -122.537347 177 380ft 99kts
17-Jan-23 15:57 48.765630 -122.550724 204 1709ft 102kts
17-Jan-23 15:58 48.741917 -122.572994 202 2732ft 102kts
17-Jan-23 15:59 48.716018 -122.579512 177 3730ft 104kts
17-Jan-23 16:00 48.683994 -122.581169 180 4473ft 122kts
17-Jan-23 16:01 48.649156 -122.584962 185 5206ft 131kts
17-Jan-23 16:02 48.611920 -122.596841 192 5970ft 141kts
17-Jan-23 16:03 48.573894 -122.610108 194 6856ft 140kts
17-Jan-23 16:04 48.532139 -122.624710 194 7009ft 163kts
17-Jan-23 16:04 48.495226 -122.637573 194 7018ft 163kts
17-Jan-23 16:06 48.443122 -122.655723 194 7023ft 165kts
17-Jan-23 16:07 48.397868 -122.671442 195 6963ft 167kts
17-Jan-23 16:08 48.353076 -122.686949 195 6959ft 163kts
17-Jan-23 16:09 48.308201 -122.702478 195 6961ft 168kts
17-Jan-23 16:09 48.270203 -122.715617 195 6956ft 167kts
17-Jan-23 16:10 48.223584 -122.722236 179 6949ft 171kts
17-Jan-23 16:12 48.168553 -122.715845 179 6949ft 169kts
17-Jan-23 16:13 48.121073 -122.710547 180 6952ft 171kts
17-Jan-23 16:13 48.081215 -122.706078 179 6952ft 173kts
17-Jan-23 16:14 48.032945 -122.700688 179 6944ft 174kts
17-Jan-23 16:15 47.984538 -122.695260 180 6179ft 171kts
17-Jan-23 16:16 47.938574 -122.690174 179 5136ft 161kts
17-Jan-23 16:18 47.888077 -122.684551 179 3901ft 149kts
17-Jan-23 16:18 47.854273 -122.678708 157 3114ft 146kts
17-Jan-23 16:19 47.822669 -122.646309 149 2979ft 137kts
17-Jan-23 16:20 47.792092 -122.610086 149 2979ft 145kts
17-Jan-23 16:21 47.760256 -122.572927 152 2769ft 148kts
17-Jan-23 16:22 47.724092 -122.542256 158 2048ft 139kts
17-Jan-23 16:23 47.688747 -122.516449 160 1992ft 144kts
17-Jan-23 16:24 47.657557 -122.477982 135 1984ft 154kts
17-Jan-23 16:25 47.633319 -122.425263 127 1987ft 156kts
17-Jan-23 16:26 47.614253 -122.375096 138 1614ft 112kts
17-Jan-23 16:27 47.589200 -122.352282 156 1241ft 116kts
17-Jan-23 16:28 47.562252 -122.329333 152 574ft 113kts
17-Jan-23 16:29 47.538375 -122.309502 149 41ft 89kts
17-Jan-23 16:30 47.530744 -122.301105 58 24ft 13kts
17-Jan-23 16:31 47.530336 -122.298491 60 22ft 0kts
17-Jan-23 16:32 47.530336 -122.298491 60 22ft 0kts
17-Jan-23 16:33 47.530336 -122.298491 60 22ft 0kts
17-Jan-23 16:34 47.530336 -122.298491 60 22ft 0kts
17-Jan-23 16:35 47.530336 -122.298491 60 22ft 0kts

Navigation Log

Ident Type
Flight plan parsing failed, navigation log unavailable